sensor_id;sensor_type;location;lat;lon;timestamp;P1;durP1;ratioP1;P2;durP2;ratioP2
68140;SDS011;54941;52.220;104.306;2022-11-14T00:00:39;3.30;;;1.83;;
68140;SDS011;54941;52.220;104.306;2022-11-14T00:03:06;3.15;;;1.40;;
68140;SDS011;54941;52.220;104.306;2022-11-14T00:05:37;6.13;;;1.98;;
68140;SDS011;54941;52.220;104.306;2022-11-14T00:08:05;3.92;;;1.75;;
68140;SDS011;54941;52.220;104.306;2022-11-14T00:10:37;4.50;;;2.30;;
68140;SDS011;54941;52.220;104.306;2022-11-14T00:13:03;3.22;;;1.80;;
68140;SDS011;54941;52.220;104.306;2022-11-14T00:15:29;3.63;;;1.75;;
68140;SDS011;54941;52.220;104.306;2022-11-14T00:17:56;22.88;;;8.90;;
68140;SDS011;54941;52.220;104.306;2022-11-14T00:20:22;9.52;;;4.47;;
68140;SDS011;54941;52.220;104.306;2022-11-14T00:22:49;4.55;;;2.00;;
68140;SDS011;54941;52.220;104.306;2022-11-14T00:25:16;14.80;;;5.70;;
68140;SDS011;54941;52.220;104.306;2022-11-14T00:27:43;8.00;;;3.72;;
68140;SDS011;54941;52.220;104.306;2022-11-14T00:30:09;5.40;;;2.58;;
68140;SDS011;54941;52.220;104.306;2022-11-14T00:32:36;6.63;;;2.85;;
68140;SDS011;54941;52.220;104.306;2022-11-14T00:35:03;8.05;;;3.25;;
68140;SDS011;54941;52.220;104.306;2022-11-14T00:37:29;3.65;;;2.17;;
68140;SDS011;54941;52.220;104.306;2022-11-14T00:39:55;4.72;;;1.60;;
68140;SDS011;54941;52.220;104.306;2022-11-14T00:42:23;4.05;;;2.13;;
68140;SDS011;54941;52.220;104.306;2022-11-14T00:44:50;4.82;;;2.13;;
68140;SDS011;54941;52.220;104.306;2022-11-14T00:47:16;3.65;;;1.58;;
68140;SDS011;54941;52.220;104.306;2022-11-14T00:49:42;19.80;;;9.43;;
68140;SDS011;54941;52.220;104.306;2022-11-14T00:52:08;9.52;;;4.05;;
68140;SDS011;54941;52.220;104.306;2022-11-14T00:54:35;3.85;;;2.00;;
68140;SDS011;54941;52.220;104.306;2022-11-14T00:57:01;5.43;;;3.15;;
68140;SDS011;54941;52.220;104.306;2022-11-14T00:59:29;26.83;;;12.20;;
68140;SDS011;54941;52.220;104.306;2022-11-14T01:01:55;9.75;;;4.63;;
68140;SDS011;54941;52.220;104.306;2022-11-14T01:04:22;6.82;;;2.78;;
68140;SDS011;54941;52.220;104.306;2022-11-14T01:06:48;3.95;;;2.00;;
68140;SDS011;54941;52.220;104.306;2022-11-14T01:09:14;5.20;;;2.17;;
68140;SDS011;54941;52.220;104.306;2022-11-14T01:11:40;4.38;;;2.22;;
68140;SDS011;54941;52.220;104.306;2022-11-14T01:14:07;4.43;;;1.92;;
68140;SDS011;54941;52.220;104.306;2022-11-14T01:16:35;6.63;;;2.45;;
68140;SDS011;54941;52.220;104.306;2022-11-14T01:19:02;4.30;;;1.83;;
68140;SDS011;54941;52.220;104.306;2022-11-14T01:21:28;3.28;;;1.48;;
68140;SDS011;54941;52.220;104.306;2022-11-14T01:23:55;3.63;;;1.70;;
68140;SDS011;54941;52.220;104.306;2022-11-14T01:26:21;4.53;;;1.88;;
68140;SDS011;54941;52.220;104.306;2022-11-14T01:28:47;3.50;;;1.52;;
68140;SDS011;54941;52.220;104.306;2022-11-14T01:31:14;4.82;;;1.88;;
68140;SDS011;54941;52.220;104.306;2022-11-14T01:33:46;2.92;;;1.35;;
68140;SDS011;54941;52.220;104.306;2022-11-14T01:36:13;4.10;;;1.88;;
68140;SDS011;54941;52.220;104.306;2022-11-14T01:38:40;12.63;;;6.53;;
68140;SDS011;54941;52.220;104.306;2022-11-14T01:41:06;9.05;;;3.78;;
68140;SDS011;54941;52.220;104.306;2022-11-14T01:43:32;6.00;;;2.38;;
68140;SDS011;54941;52.220;104.306;2022-11-14T01:46:01;6.70;;;2.70;;
68140;SDS011;54941;52.220;104.306;2022-11-14T01:48:30;3.20;;;1.75;;
68140;SDS011;54941;52.220;104.306;2022-11-14T01:51:04;3.65;;;1.83;;
68140;SDS011;54941;52.220;104.306;2022-11-14T01:53:42;4.18;;;1.98;;
68140;SDS011;54941;52.220;104.306;2022-11-14T01:56:09;6.43;;;3.80;;
68140;SDS011;54941;52.220;104.306;2022-11-14T02:01:06;23.05;;;11.20;;
68140;SDS011;54941;52.220;104.306;2022-11-14T02:03:33;23.88;;;10.05;;
68140;SDS011;54941;52.220;104.306;2022-11-14T02:06:05;20.33;;;10.13;;
68140;SDS011;54941;52.220;104.306;2022-11-14T02:08:34;4.90;;;2.97;;
68140;SDS011;54941;52.220;104.306;2022-11-14T02:11:01;4.45;;;1.80;;
68140;SDS011;54941;52.220;104.306;2022-11-14T02:13:27;5.90;;;2.88;;
68140;SDS011;54941;52.220;104.306;2022-11-14T02:15:54;8.05;;;4.30;;
68140;SDS011;54941;52.220;104.306;2022-11-14T02:18:20;7.97;;;4.25;;
68140;SDS011;54941;52.220;104.306;2022-11-14T02:20:48;17.98;;;10.38;;
68140;SDS011;54941;52.220;104.306;2022-11-14T02:23:23;22.48;;;13.65;;
68140;SDS011;54941;52.220;104.306;2022-11-14T02:25:50;17.83;;;10.63;;
68140;SDS011;54941;52.220;104.306;2022-11-14T02:28:17;17.63;;;9.63;;
68140;SDS011;54941;52.220;104.306;2022-11-14T02:30:44;16.35;;;8.45;;
68140;SDS011;54941;52.220;104.306;2022-11-14T02:33:10;16.65;;;8.93;;
68140;SDS011;54941;52.220;104.306;2022-11-14T02:35:37;14.15;;;8.10;;
68140;SDS011;54941;52.220;104.306;2022-11-14T02:38:05;11.07;;;7.53;;
68140;SDS011;54941;52.220;104.306;2022-11-14T02:40:31;10.88;;;6.93;;
68140;SDS011;54941;52.220;104.306;2022-11-14T02:42:58;12.48;;;6.57;;
68140;SDS011;54941;52.220;104.306;2022-11-14T02:45:24;12.20;;;7.95;;
68140;SDS011;54941;52.220;104.306;2022-11-14T02:47:51;12.00;;;8.45;;
68140;SDS011;54941;52.220;104.306;2022-11-14T02:50:17;10.93;;;6.70;;
68140;SDS011;54941;52.220;104.306;2022-11-14T02:52:44;9.38;;;5.93;;
68140;SDS011;54941;52.220;104.306;2022-11-14T02:55:11;8.73;;;6.05;;
68140;SDS011;54941;52.220;104.306;2022-11-14T02:57:38;14.95;;;9.82;;
68140;SDS011;54941;52.220;104.306;2022-11-14T03:00:04;11.32;;;7.78;;
68140;SDS011;54941;52.220;104.306;2022-11-14T03:02:32;10.60;;;7.40;;
68140;SDS011;54941;52.220;104.306;2022-11-14T03:04:58;9.73;;;6.95;;
68140;SDS011;54941;52.220;104.306;2022-11-14T03:07:24;7.13;;;4.95;;
68140;SDS011;54941;52.220;104.306;2022-11-14T03:09:51;8.70;;;5.70;;
68140;SDS011;54941;52.220;104.306;2022-11-14T03:12:18;9.65;;;5.90;;
68140;SDS011;54941;52.220;104.306;2022-11-14T03:14:45;7.28;;;4.50;;
68140;SDS011;54941;52.220;104.306;2022-11-14T03:17:11;7.45;;;2.78;;
68140;SDS011;54941;52.220;104.306;2022-11-14T03:19:38;4.03;;;1.67;;
68140;SDS011;54941;52.220;104.306;2022-11-14T03:22:04;8.65;;;3.80;;
68140;SDS011;54941;52.220;104.306;2022-11-14T03:24:31;4.38;;;1.88;;
68140;SDS011;54941;52.220;104.306;2022-11-14T03:26:57;6.07;;;2.38;;
68140;SDS011;54941;52.220;104.306;2022-11-14T03:29:25;6.15;;;2.60;;
68140;SDS011;54941;52.220;104.306;2022-11-14T03:31:51;2.97;;;1.23;;
68140;SDS011;54941;52.220;104.306;2022-11-14T03:34:17;4.18;;;1.50;;
68140;SDS011;54941;52.220;104.306;2022-11-14T03:36:44;2.95;;;1.30;;
68140;SDS011;54941;52.220;104.306;2022-11-14T03:39:10;3.90;;;1.30;;
68140;SDS011;54941;52.220;104.306;2022-11-14T03:41:36;2.30;;;1.08;;
68140;SDS011;54941;52.220;104.306;2022-11-14T03:44:03;2.38;;;1.08;;
68140;SDS011;54941;52.220;104.306;2022-11-14T03:46:31;3.38;;;1.42;;
68140;SDS011;54941;52.220;104.306;2022-11-14T03:48:57;3.55;;;1.10;;
68140;SDS011;54941;52.220;104.306;2022-11-14T03:51:23;3.35;;;1.35;;
68140;SDS011;54941;52.220;104.306;2022-11-14T03:53:50;3.40;;;1.20;;
68140;SDS011;54941;52.220;104.306;2022-11-14T03:56:16;2.83;;;1.40;;
68140;SDS011;54941;52.220;104.306;2022-11-14T03:58:42;2.30;;;1.15;;
68140;SDS011;54941;52.220;104.306;2022-11-14T04:01:09;3.05;;;1.40;;
68140;SDS011;54941;52.220;104.306;2022-11-14T04:03:36;2.40;;;1.00;;
68140;SDS011;54941;52.220;104.306;2022-11-14T04:06:03;2.80;;;1.20;;
68140;SDS011;54941;52.220;104.306;2022-11-14T04:08:29;2.80;;;1.17;;
68140;SDS011;54941;52.220;104.306;2022-11-14T04:10:56;2.88;;;1.30;;
68140;SDS011;54941;52.220;104.306;2022-11-14T04:13:22;3.40;;;1.73;;
68140;SDS011;54941;52.220;104.306;2022-11-14T04:15:53;2.83;;;1.60;;
68140;SDS011;54941;52.220;104.306;2022-11-14T04:18:20;3.53;;;1.40;;
68140;SDS011;54941;52.220;104.306;2022-11-14T04:20:47;3.05;;;1.52;;
68140;SDS011;54941;52.220;104.306;2022-11-14T04:23:14;2.95;;;1.40;;
68140;SDS011;54941;52.220;104.306;2022-11-14T04:25:41;3.30;;;1.33;;
68140;SDS011;54941;52.220;104.306;2022-11-14T04:28:08;3.40;;;1.40;;
68140;SDS011;54941;52.220;104.306;2022-11-14T04:30:34;2.97;;;1.20;;
68140;SDS011;54941;52.220;104.306;2022-11-14T04:33:00;6.25;;;2.88;;
68140;SDS011;54941;52.220;104.306;2022-11-14T04:35:27;3.25;;;1.55;;
68140;SDS011;54941;52.220;104.306;2022-11-14T04:37:55;3.78;;;1.70;;
68140;SDS011;54941;52.220;104.306;2022-11-14T04:40:21;3.83;;;1.52;;
68140;SDS011;54941;52.220;104.306;2022-11-14T04:42:47;3.85;;;1.65;;
68140;SDS011;54941;52.220;104.306;2022-11-14T04:45:14;4.57;;;1.63;;
68140;SDS011;54941;52.220;104.306;2022-11-14T04:47:40;3.92;;;1.52;;
68140;SDS011;54941;52.220;104.306;2022-11-14T04:50:07;5.15;;;1.50;;
68140;SDS011;54941;52.220;104.306;2022-11-14T04:52:34;3.42;;;1.33;;
68140;SDS011;54941;52.220;104.306;2022-11-14T04:55:02;3.03;;;1.40;;
68140;SDS011;54941;52.220;104.306;2022-11-14T04:57:29;3.05;;;1.20;;
68140;SDS011;54941;52.220;104.306;2022-11-14T04:59:55;3.15;;;1.10;;
68140;SDS011;54941;52.220;104.306;2022-11-14T05:02:22;2.30;;;0.93;;
68140;SDS011;54941;52.220;104.306;2022-11-14T05:04:48;1.98;;;0.80;;
68140;SDS011;54941;52.220;104.306;2022-11-14T05:07:14;2.20;;;1.23;;
68140;SDS011;54941;52.220;104.306;2022-11-14T05:09:41;8.80;;;3.63;;
68140;SDS011;54941;52.220;104.306;2022-11-14T05:12:09;2.92;;;1.20;;
68140;SDS011;54941;52.220;104.306;2022-11-14T05:14:35;3.58;;;1.40;;
68140;SDS011;54941;52.220;104.306;2022-11-14T05:17:02;3.30;;;1.20;;
68140;SDS011;54941;52.220;104.306;2022-11-14T05:19:28;2.25;;;1.05;;
68140;SDS011;54941;52.220;104.306;2022-11-14T05:21:54;3.17;;;1.58;;
68140;SDS011;54941;52.220;104.306;2022-11-14T05:24:21;3.17;;;1.50;;
68140;SDS011;54941;52.220;104.306;2022-11-14T05:26:47;2.90;;;1.20;;
68140;SDS011;54941;52.220;104.306;2022-11-14T05:29:15;2.40;;;1.20;;
68140;SDS011;54941;52.220;104.306;2022-11-14T05:31:42;2.78;;;1.30;;
68140;SDS011;54941;52.220;104.306;2022-11-14T05:34:08;3.85;;;1.45;;
68140;SDS011;54941;52.220;104.306;2022-11-14T05:36:35;3.30;;;1.50;;
68140;SDS011;54941;52.220;104.306;2022-11-14T05:39:01;3.40;;;1.70;;
68140;SDS011;54941;52.220;104.306;2022-11-14T05:41:28;5.07;;;2.28;;
68140;SDS011;54941;52.220;104.306;2022-11-14T05:43:54;3.80;;;1.70;;
68140;SDS011;54941;52.220;104.306;2022-11-14T05:46:22;3.35;;;1.30;;
68140;SDS011;54941;52.220;104.306;2022-11-14T05:48:48;3.72;;;2.00;;
68140;SDS011;54941;52.220;104.306;2022-11-14T05:51:15;4.47;;;2.30;;
68140;SDS011;54941;52.220;104.306;2022-11-14T05:53:41;2.60;;;1.33;;
68140;SDS011;54941;52.220;104.306;2022-11-14T05:56:09;2.60;;;1.40;;
68140;SDS011;54941;52.220;104.306;2022-11-14T05:58:36;4.18;;;1.90;;
68140;SDS011;54941;52.220;104.306;2022-11-14T06:01:03;2.88;;;1.20;;
68140;SDS011;54941;52.220;104.306;2022-11-14T06:03:34;3.15;;;1.27;;
68140;SDS011;54941;52.220;104.306;2022-11-14T06:06:02;2.33;;;1.17;;
68140;SDS011;54941;52.220;104.306;2022-11-14T06:08:31;3.00;;;1.30;;
68140;SDS011;54941;52.220;104.306;2022-11-14T06:11:00;2.15;;;0.93;;
68140;SDS011;54941;52.220;104.306;2022-11-14T06:13:28;2.40;;;1.15;;
68140;SDS011;54941;52.220;104.306;2022-11-14T06:15:57;3.28;;;1.17;;
68140;SDS011;54941;52.220;104.306;2022-11-14T06:18:24;2.22;;;1.05;;
68140;SDS011;54941;52.220;104.306;2022-11-14T06:20:52;2.45;;;1.08;;
68140;SDS011;54941;52.220;104.306;2022-11-14T06:23:18;2.28;;;0.95;;
68140;SDS011;54941;52.220;104.306;2022-11-14T06:25:45;2.20;;;1.05;;
68140;SDS011;54941;52.220;104.306;2022-11-14T06:28:11;2.40;;;1.00;;
68140;SDS011;54941;52.220;104.306;2022-11-14T06:30:37;2.58;;;1.10;;
68140;SDS011;54941;52.220;104.306;2022-11-14T06:33:06;2.00;;;0.98;;
68140;SDS011;54941;52.220;104.306;2022-11-14T06:35:33;3.25;;;1.25;;
68140;SDS011;54941;52.220;104.306;2022-11-14T06:38:01;2.20;;;1.20;;
68140;SDS011;54941;52.220;104.306;2022-11-14T06:40:27;6.47;;;3.03;;
68140;SDS011;54941;52.220;104.306;2022-11-14T06:42:54;3.47;;;1.10;;
68140;SDS011;54941;52.220;104.306;2022-11-14T06:45:20;3.28;;;1.23;;
68140;SDS011;54941;52.220;104.306;2022-11-14T06:47:46;2.80;;;1.33;;
68140;SDS011;54941;52.220;104.306;2022-11-14T06:50:14;2.42;;;1.30;;
68140;SDS011;54941;52.220;104.306;2022-11-14T06:52:41;2.65;;;1.10;;
68140;SDS011;54941;52.220;104.306;2022-11-14T06:55:09;2.50;;;1.10;;
68140;SDS011;54941;52.220;104.306;2022-11-14T06:57:38;3.95;;;1.83;;
68140;SDS011;54941;52.220;104.306;2022-11-14T07:00:05;3.90;;;1.73;;
68140;SDS011;54941;52.220;104.306;2022-11-14T07:02:32;2.72;;;1.42;;
68140;SDS011;54941;52.220;104.306;2022-11-14T07:04:59;3.50;;;1.55;;
68140;SDS011;54941;52.220;104.306;2022-11-14T07:07:25;2.85;;;1.50;;
68140;SDS011;54941;52.220;104.306;2022-11-14T07:09:51;2.38;;;1.20;;
68140;SDS011;54941;52.220;104.306;2022-11-14T07:12:19;3.17;;;1.40;;
68140;SDS011;54941;52.220;104.306;2022-11-14T07:14:45;2.30;;;1.02;;
68140;SDS011;54941;52.220;104.306;2022-11-14T07:17:12;2.25;;;0.93;;
68140;SDS011;54941;52.220;104.306;2022-11-14T07:19:38;2.30;;;0.90;;
68140;SDS011;54941;52.220;104.306;2022-11-14T07:22:04;2.78;;;1.30;;
68140;SDS011;54941;52.220;104.306;2022-11-14T07:24:30;2.75;;;1.00;;
68140;SDS011;54941;52.220;104.306;2022-11-14T07:26:57;2.08;;;0.82;;
68140;SDS011;54941;52.220;104.306;2022-11-14T07:29:24;2.65;;;0.90;;
68140;SDS011;54941;52.220;104.306;2022-11-14T07:31:51;2.35;;;0.98;;
68140;SDS011;54941;52.220;104.306;2022-11-14T07:34:17;3.17;;;1.42;;
68140;SDS011;54941;52.220;104.306;2022-11-14T07:36:43;4.00;;;1.52;;
68140;SDS011;54941;52.220;104.306;2022-11-14T07:39:10;3.15;;;1.38;;
68140;SDS011;54941;52.220;104.306;2022-11-14T07:41:36;3.13;;;1.40;;
68140;SDS011;54941;52.220;104.306;2022-11-14T07:44:03;2.17;;;0.93;;
68140;SDS011;54941;52.220;104.306;2022-11-14T07:46:31;1.90;;;0.88;;
68140;SDS011;54941;52.220;104.306;2022-11-14T07:48:57;2.72;;;1.30;;
68140;SDS011;54941;52.220;104.306;2022-11-14T07:51:23;2.20;;;1.00;;
68140;SDS011;54941;52.220;104.306;2022-11-14T07:53:52;3.45;;;1.42;;
68140;SDS011;54941;52.220;104.306;2022-11-14T07:56:18;4.90;;;2.05;;
68140;SDS011;54941;52.220;104.306;2022-11-14T07:58:45;4.43;;;1.95;;
68140;SDS011;54941;52.220;104.306;2022-11-14T08:01:11;4.72;;;1.83;;
68140;SDS011;54941;52.220;104.306;2022-11-14T08:03:40;3.78;;;1.88;;
68140;SDS011;54941;52.220;104.306;2022-11-14T08:06:07;6.63;;;3.42;;
68140;SDS011;54941;52.220;104.306;2022-11-14T08:08:35;7.43;;;3.10;;
68140;SDS011;54941;52.220;104.306;2022-11-14T08:11:01;5.57;;;2.85;;
68140;SDS011;54941;52.220;104.306;2022-11-14T08:13:28;7.55;;;3.38;;
68140;SDS011;54941;52.220;104.306;2022-11-14T08:15:55;16.77;;;8.88;;
68140;SDS011;54941;52.220;104.306;2022-11-14T08:18:22;13.90;;;7.80;;
68140;SDS011;54941;52.220;104.306;2022-11-14T08:20:49;9.93;;;5.80;;
68140;SDS011;54941;52.220;104.306;2022-11-14T08:23:16;7.47;;;4.47;;
68140;SDS011;54941;52.220;104.306;2022-11-14T08:25:42;7.20;;;4.10;;
68140;SDS011;54941;52.220;104.306;2022-11-14T08:28:09;5.18;;;2.50;;
68140;SDS011;54941;52.220;104.306;2022-11-14T08:30:35;4.22;;;1.98;;
68140;SDS011;54941;52.220;104.306;2022-11-14T08:33:02;7.38;;;3.22;;
68140;SDS011;54941;52.220;104.306;2022-11-14T08:35:29;9.40;;;3.60;;
68140;SDS011;54941;52.220;104.306;2022-11-14T08:37:59;7.13;;;3.22;;
68140;SDS011;54941;52.220;104.306;2022-11-14T08:40:25;9.23;;;4.10;;
68140;SDS011;54941;52.220;104.306;2022-11-14T08:42:54;5.32;;;2.92;;
68140;SDS011;54941;52.220;104.306;2022-11-14T08:45:23;5.85;;;2.08;;
68140;SDS011;54941;52.220;104.306;2022-11-14T08:47:50;5.00;;;2.05;;
68140;SDS011;54941;52.220;104.306;2022-11-14T08:50:16;4.90;;;2.55;;
68140;SDS011;54941;52.220;104.306;2022-11-14T08:52:43;4.32;;;1.83;;
68140;SDS011;54941;52.220;104.306;2022-11-14T08:55:15;4.32;;;1.80;;
68140;SDS011;54941;52.220;104.306;2022-11-14T08:57:42;3.08;;;1.42;;
68140;SDS011;54941;52.220;104.306;2022-11-14T09:00:09;3.42;;;1.90;;
68140;SDS011;54941;52.220;104.306;2022-11-14T09:02:36;4.45;;;1.98;;
68140;SDS011;54941;52.220;104.306;2022-11-14T09:05:02;7.70;;;3.58;;
68140;SDS011;54941;52.220;104.306;2022-11-14T09:07:29;4.72;;;2.45;;
68140;SDS011;54941;52.220;104.306;2022-11-14T09:09:56;9.98;;;3.85;;
68140;SDS011;54941;52.220;104.306;2022-11-14T09:12:24;5.88;;;2.42;;
68140;SDS011;54941;52.220;104.306;2022-11-14T09:14:50;13.20;;;5.35;;
68140;SDS011;54941;52.220;104.306;2022-11-14T09:17:17;7.82;;;3.08;;
68140;SDS011;54941;52.220;104.306;2022-11-14T09:19:43;4.57;;;3.03;;
68140;SDS011;54941;52.220;104.306;2022-11-14T09:22:09;7.30;;;3.42;;
68140;SDS011;54941;52.220;104.306;2022-11-14T09:24:36;5.40;;;2.63;;
68140;SDS011;54941;52.220;104.306;2022-11-14T09:27:02;8.35;;;3.90;;
68140;SDS011;54941;52.220;104.306;2022-11-14T09:29:30;5.93;;;3.10;;
68140;SDS011;54941;52.220;104.306;2022-11-14T09:31:56;5.88;;;2.80;;
68140;SDS011;54941;52.220;104.306;2022-11-14T09:34:23;4.85;;;2.35;;
68140;SDS011;54941;52.220;104.306;2022-11-14T09:36:49;4.57;;;2.38;;
68140;SDS011;54941;52.220;104.306;2022-11-14T09:39:15;9.77;;;4.30;;
68140;SDS011;54941;52.220;104.306;2022-11-14T09:41:47;13.05;;;6.30;;
68140;SDS011;54941;52.220;104.306;2022-11-14T09:47:22;6.82;;;3.83;;
68140;SDS011;54941;52.220;104.306;2022-11-14T09:49:53;7.22;;;3.20;;
68140;SDS011;54941;52.220;104.306;2022-11-14T09:52:25;8.55;;;3.47;;
68140;SDS011;54941;52.220;104.306;2022-11-14T09:54:56;5.90;;;2.45;;
68140;SDS011;54941;52.220;104.306;2022-11-14T09:57:25;5.75;;;2.22;;
68140;SDS011;54941;52.220;104.306;2022-11-14T09:59:53;9.13;;;3.92;;
68140;SDS011;54941;52.220;104.306;2022-11-14T10:02:32;9.57;;;3.97;;
68140;SDS011;54941;52.220;104.306;2022-11-14T10:05:11;12.88;;;6.07;;
68140;SDS011;54941;52.220;104.306;2022-11-14T10:07:51;6.18;;;2.63;;
68140;SDS011;54941;52.220;104.306;2022-11-14T10:10:39;7.50;;;3.00;;
68140;SDS011;54941;52.220;104.306;2022-11-14T10:13:16;8.25;;;3.83;;
68140;SDS011;54941;52.220;104.306;2022-11-14T10:15:56;6.35;;;2.75;;
68140;SDS011;54941;52.220;104.306;2022-11-14T10:18:44;7.22;;;3.30;;
68140;SDS011;54941;52.220;104.306;2022-11-14T10:21:25;8.30;;;3.53;;
68140;SDS011;54941;52.220;104.306;2022-11-14T10:24:04;10.73;;;3.83;;
68140;SDS011;54941;52.220;104.306;2022-11-14T10:26:42;7.75;;;3.53;;
68140;SDS011;54941;52.220;104.306;2022-11-14T10:29:27;13.35;;;5.13;;
68140;SDS011;54941;52.220;104.306;2022-11-14T10:32:19;14.05;;;6.07;;
68140;SDS011;54941;52.220;104.306;2022-11-14T10:34:57;13.75;;;5.10;;
68140;SDS011;54941;52.220;104.306;2022-11-14T10:37:30;12.43;;;5.65;;
68140;SDS011;54941;52.220;104.306;2022-11-14T10:40:03;12.35;;;5.55;;
68140;SDS011;54941;52.220;104.306;2022-11-14T10:42:40;13.13;;;6.00;;
68140;SDS011;54941;52.220;104.306;2022-11-14T10:45:14;15.45;;;5.53;;
68140;SDS011;54941;52.220;104.306;2022-11-14T10:47:51;16.33;;;5.78;;
68140;SDS011;54941;52.220;104.306;2022-11-14T10:50:25;16.40;;;6.50;;
68140;SDS011;54941;52.220;104.306;2022-11-14T10:53:11;10.07;;;4.40;;
68140;SDS011;54941;52.220;104.306;2022-11-14T10:55:44;9.98;;;4.43;;
68140;SDS011;54941;52.220;104.306;2022-11-14T10:58:14;33.53;;;14.38;;
68140;SDS011;54941;52.220;104.306;2022-11-14T11:00:40;17.05;;;7.32;;
68140;SDS011;54941;52.220;104.306;2022-11-14T11:03:07;9.43;;;3.90;;
68140;SDS011;54941;52.220;104.306;2022-11-14T11:05:43;6.25;;;3.30;;
68140;SDS011;54941;52.220;104.306;2022-11-14T11:08:18;6.45;;;3.03;;
68140;SDS011;54941;52.220;104.306;2022-11-14T11:10:45;8.77;;;4.05;;
68140;SDS011;54941;52.220;104.306;2022-11-14T11:13:12;14.02;;;6.05;;
68140;SDS011;54941;52.220;104.306;2022-11-14T11:15:54;12.32;;;6.40;;
68140;SDS011;54941;52.220;104.306;2022-11-14T11:18:25;9.90;;;4.30;;
68140;SDS011;54941;52.220;104.306;2022-11-14T11:23:46;5.88;;;3.28;;
68140;SDS011;54941;52.220;104.306;2022-11-14T11:26:18;14.07;;;5.35;;
68140;SDS011;54941;52.220;104.306;2022-11-14T11:29:04;7.50;;;3.00;;
68140;SDS011;54941;52.220;104.306;2022-11-14T11:31:48;7.20;;;3.60;;
68140;SDS011;54941;52.220;104.306;2022-11-14T11:34:17;7.57;;;4.20;;
68140;SDS011;54941;52.220;104.306;2022-11-14T11:36:49;9.05;;;4.85;;
68140;SDS011;54941;52.220;104.306;2022-11-14T11:39:21;7.57;;;3.85;;
68140;SDS011;54941;52.220;104.306;2022-11-14T11:41:51;8.63;;;4.05;;
68140;SDS011;54941;52.220;104.306;2022-11-14T11:44:20;9.27;;;4.00;;
68140;SDS011;54941;52.220;104.306;2022-11-14T11:46:54;7.03;;;3.83;;
68140;SDS011;54941;52.220;104.306;2022-11-14T11:49:34;6.75;;;3.55;;
68140;SDS011;54941;52.220;104.306;2022-11-14T11:52:09;6.57;;;3.33;;
68140;SDS011;54941;52.220;104.306;2022-11-14T11:54:42;6.10;;;3.47;;
68140;SDS011;54941;52.220;104.306;2022-11-14T11:57:16;8.52;;;3.95;;
68140;SDS011;54941;52.220;104.306;2022-11-14T11:59:48;5.90;;;3.45;;
68140;SDS011;54941;52.220;104.306;2022-11-14T12:02:20;41.67;;;21.10;;
68140;SDS011;54941;52.220;104.306;2022-11-14T12:04:48;27.30;;;13.60;;
68140;SDS011;54941;52.220;104.306;2022-11-14T12:07:18;13.40;;;6.85;;
68140;SDS011;54941;52.220;104.306;2022-11-14T12:09:46;9.70;;;4.88;;
68140;SDS011;54941;52.220;104.306;2022-11-14T12:12:16;7.68;;;4.35;;
68140;SDS011;54941;52.220;104.306;2022-11-14T12:14:54;7.70;;;4.50;;
68140;SDS011;54941;52.220;104.306;2022-11-14T12:17:35;7.70;;;4.18;;
68140;SDS011;54941;52.220;104.306;2022-11-14T12:20:26;4.72;;;2.53;;
68140;SDS011;54941;52.220;104.306;2022-11-14T12:23:22;5.50;;;3.03;;
68140;SDS011;54941;52.220;104.306;2022-11-14T12:26:04;4.82;;;2.40;;
68140;SDS011;54941;52.220;104.306;2022-11-14T12:28:46;6.93;;;3.25;;
68140;SDS011;54941;52.220;104.306;2022-11-14T12:31:26;4.15;;;1.85;;
68140;SDS011;54941;52.220;104.306;2022-11-14T12:33:57;3.75;;;1.92;;
68140;SDS011;54941;52.220;104.306;2022-11-14T12:36:26;5.82;;;2.20;;
68140;SDS011;54941;52.220;104.306;2022-11-14T12:38:58;5.45;;;2.15;;
68140;SDS011;54941;52.220;104.306;2022-11-14T12:41:26;4.05;;;2.22;;
68140;SDS011;54941;52.220;104.306;2022-11-14T12:49:58;25.70;;;11.27;;
68140;SDS011;54941;52.220;104.306;2022-11-14T12:52:45;19.08;;;7.35;;
68140;SDS011;54941;52.220;104.306;2022-11-14T12:58:17;30.02;;;12.27;;
68140;SDS011;54941;52.220;104.306;2022-11-14T13:00:59;24.90;;;10.18;;
68140;SDS011;54941;52.220;104.306;2022-11-14T13:03:40;22.08;;;10.63;;
68140;SDS011;54941;52.220;104.306;2022-11-14T13:06:19;25.90;;;10.68;;
68140;SDS011;54941;52.220;104.306;2022-11-14T13:08:53;33.45;;;13.70;;
68140;SDS011;54941;52.220;104.306;2022-11-14T13:11:33;33.25;;;12.55;;
68140;SDS011;54941;52.220;104.306;2022-11-14T13:14:06;27.98;;;11.93;;
68140;SDS011;54941;52.220;104.306;2022-11-14T13:16:33;27.38;;;12.52;;
68140;SDS011;54941;52.220;104.306;2022-11-14T13:19:00;28.63;;;12.93;;
68140;SDS011;54941;52.220;104.306;2022-11-14T13:21:37;19.98;;;8.00;;
68140;SDS011;54941;52.220;104.306;2022-11-14T13:24:24;19.75;;;7.72;;
68140;SDS011;54941;52.220;104.306;2022-11-14T13:26:51;20.52;;;8.15;;
68140;SDS011;54941;52.220;104.306;2022-11-14T13:50:29;14.00;;;5.80;;
68140;SDS011;54941;52.220;104.306;2022-11-14T13:52:59;8.32;;;4.10;;
68140;SDS011;54941;52.220;104.306;2022-11-14T13:55:27;17.85;;;7.57;;
68140;SDS011;54941;52.220;104.306;2022-11-14T13:58:05;12.82;;;5.55;;
68140;SDS011;54941;52.220;104.306;2022-11-14T14:00:46;8.00;;;3.65;;
68140;SDS011;54941;52.220;104.306;2022-11-14T14:03:25;5.20;;;2.25;;
68140;SDS011;54941;52.220;104.306;2022-11-14T14:06:17;6.05;;;2.85;;
68140;SDS011;54941;52.220;104.306;2022-11-14T14:08:59;4.82;;;2.17;;
68140;SDS011;54941;52.220;104.306;2022-11-14T14:11:41;6.72;;;2.60;;
68140;SDS011;54941;52.220;104.306;2022-11-14T14:14:23;7.35;;;2.78;;
68140;SDS011;54941;52.220;104.306;2022-11-14T14:17:01;5.97;;;2.58;;
68140;SDS011;54941;52.220;104.306;2022-11-14T14:19:35;7.95;;;3.25;;
68140;SDS011;54941;52.220;104.306;2022-11-14T14:22:14;8.43;;;3.63;;
68140;SDS011;54941;52.220;104.306;2022-11-14T14:24:50;9.27;;;3.42;;
68140;SDS011;54941;52.220;104.306;2022-11-14T14:27:25;8.90;;;3.72;;
68140;SDS011;54941;52.220;104.306;2022-11-14T14:29:59;6.70;;;3.78;;
68140;SDS011;54941;52.220;104.306;2022-11-14T14:32:32;7.15;;;3.53;;
68140;SDS011;54941;52.220;104.306;2022-11-14T14:34:59;7.45;;;3.53;;
68140;SDS011;54941;52.220;104.306;2022-11-14T14:37:48;6.22;;;2.58;;
68140;SDS011;54941;52.220;104.306;2022-11-14T14:40:23;5.72;;;2.47;;
68140;SDS011;54941;52.220;104.306;2022-11-14T14:42:51;6.25;;;3.90;;
68140;SDS011;54941;52.220;104.306;2022-11-14T14:45:19;8.13;;;3.58;;
68140;SDS011;54941;52.220;104.306;2022-11-14T14:47:47;8.80;;;3.83;;
68140;SDS011;54941;52.220;104.306;2022-11-14T14:50:16;7.38;;;4.03;;
68140;SDS011;54941;52.220;104.306;2022-11-14T14:52:45;6.95;;;3.05;;
68140;SDS011;54941;52.220;104.306;2022-11-14T14:55:22;7.30;;;3.28;;
68140;SDS011;54941;52.220;104.306;2022-11-14T14:57:50;6.97;;;3.67;;
68140;SDS011;54941;52.220;104.306;2022-11-14T15:00:18;9.63;;;4.03;;
68140;SDS011;54941;52.220;104.306;2022-11-14T15:02:45;10.68;;;4.55;;
68140;SDS011;54941;52.220;104.306;2022-11-14T15:05:20;10.90;;;5.03;;
68140;SDS011;54941;52.220;104.306;2022-11-14T15:07:46;14.75;;;6.82;;
68140;SDS011;54941;52.220;104.306;2022-11-14T15:10:17;10.88;;;4.78;;